sensor_id;sensor_type;location;lat;lon;timestamp;temperature;humidity
5924;DHT22;2987;50.884;14.818;2022-07-03T00:01:34;12.70;99.90
5924;DHT22;2987;50.884;14.818;2022-07-03T00:04:01;12.60;99.90
5924;DHT22;2987;50.884;14.818;2022-07-03T00:06:28;12.60;99.90
5924;DHT22;2987;50.884;14.818;2022-07-03T00:08:57;12.90;99.90
5924;DHT22;2987;50.884;14.818;2022-07-03T00:11:25;12.60;99.90
5924;DHT22;2987;50.884;14.818;2022-07-03T00:13:51;12.50;99.90
5924;DHT22;2987;50.884;14.818;2022-07-03T00:16:17;12.50;99.90
5924;DHT22;2987;50.884;14.818;2022-07-03T00:18:44;12.50;99.90
5924;DHT22;2987;50.884;14.818;2022-07-03T00:21:11;12.40;99.90
5924;DHT22;2987;50.884;14.818;2022-07-03T00:24:03;12.40;99.90
5924;DHT22;2987;50.884;14.818;2022-07-03T00:26:36;12.30;99.90
5924;DHT22;2987;50.884;14.818;2022-07-03T00:29:04;12.20;99.90
5924;DHT22;2987;50.884;14.818;2022-07-03T00:31:32;12.20;99.90
5924;DHT22;2987;50.884;14.818;2022-07-03T00:34:01;12.10;99.90
5924;DHT22;2987;50.884;14.818;2022-07-03T00:36:34;12.10;99.90
5924;DHT22;2987;50.884;14.818;2022-07-03T00:39:01;12.10;99.90
5924;DHT22;2987;50.884;14.818;2022-07-03T00:41:31;12.10;99.90
5924;DHT22;2987;50.884;14.818;2022-07-03T00:43:59;12.10;99.90
5924;DHT22;2987;50.884;14.818;2022-07-03T00:46:31;12.10;99.90
5924;DHT22;2987;50.884;14.818;2022-07-03T00:48:59;12.20;99.90
5924;DHT22;2987;50.884;14.818;2022-07-03T00:51:28;12.20;99.90
5924;DHT22;2987;50.884;14.818;2022-07-03T00:53:57;12.10;99.90
5924;DHT22;2987;50.884;14.818;2022-07-03T00:56:27;12.10;99.90
5924;DHT22;2987;50.884;14.818;2022-07-03T00:58:57;12.10;99.90
5924;DHT22;2987;50.884;14.818;2022-07-03T01:01:26;12.10;99.90
5924;DHT22;2987;50.884;14.818;2022-07-03T01:07:18;12.10;99.90
5924;DHT22;2987;50.884;14.818;2022-07-03T01:12:20;12.00;99.90
5924;DHT22;2987;50.884;14.818;2022-07-03T01:14:58;12.00;99.90
5924;DHT22;2987;50.884;14.818;2022-07-03T01:20:00;11.90;99.90
5924;DHT22;2987;50.884;14.818;2022-07-03T01:22:35;11.80;99.90
5924;DHT22;2987;50.884;14.818;2022-07-03T01:25:24;11.80;99.90
5924;DHT22;2987;50.884;14.818;2022-07-03T01:28:13;11.70;99.90
5924;DHT22;2987;50.884;14.818;2022-07-03T01:33:19;11.60;99.90
5924;DHT22;2987;50.884;14.818;2022-07-03T01:35:57;11.60;99.90
5924;DHT22;2987;50.884;14.818;2022-07-03T01:38:27;11.60;99.90
5924;DHT22;2987;50.884;14.818;2022-07-03T01:40:55;11.60;99.90
5924;DHT22;2987;50.884;14.818;2022-07-03T01:43:28;11.60;99.90
5924;DHT22;2987;50.884;14.818;2022-07-03T01:45:57;11.60;99.90
5924;DHT22;2987;50.884;14.818;2022-07-03T01:48:25;11.60;99.90
5924;DHT22;2987;50.884;14.818;2022-07-03T01:50:54;11.60;99.90
5924;DHT22;2987;50.884;14.818;2022-07-03T01:53:25;11.60;99.90
5924;DHT22;2987;50.884;14.818;2022-07-03T01:55:54;11.50;99.90
5924;DHT22;2987;50.884;14.818;2022-07-03T01:58:22;11.50;99.90
5924;DHT22;2987;50.884;14.818;2022-07-03T02:01:13;11.60;99.90
5924;DHT22;2987;50.884;14.818;2022-07-03T02:09:31;11.50;99.90
5924;DHT22;2987;50.884;14.818;2022-07-03T02:11:59;11.40;99.90
5924;DHT22;2987;50.884;14.818;2022-07-03T02:14:32;11.40;99.90
5924;DHT22;2987;50.884;14.818;2022-07-03T02:17:16;11.40;99.90
5924;DHT22;2987;50.884;14.818;2022-07-03T02:20:03;11.30;99.90
5924;DHT22;2987;50.884;14.818;2022-07-03T02:22:34;11.30;99.90
5924;DHT22;2987;50.884;14.818;2022-07-03T02:25:05;11.30;99.90
5924;DHT22;2987;50.884;14.818;2022-07-03T02:30:06;11.40;99.90
5924;DHT22;2987;50.884;14.818;2022-07-03T02:32:36;11.40;99.90
5924;DHT22;2987;50.884;14.818;2022-07-03T02:35:07;11.20;99.90
5924;DHT22;2987;50.884;14.818;2022-07-03T02:37:44;11.20;99.90
5924;DHT22;2987;50.884;14.818;2022-07-03T02:40:23;11.20;99.90
5924;DHT22;2987;50.884;14.818;2022-07-03T02:43:23;11.30;99.90
5924;DHT22;2987;50.884;14.818;2022-07-03T02:49:42;11.30;99.90
5924;DHT22;2987;50.884;14.818;2022-07-03T02:57:13;11.20;99.90
5924;DHT22;2987;50.884;14.818;2022-07-03T03:00:02;11.20;99.90
5924;DHT22;2987;50.884;14.818;2022-07-03T03:02:39;11.20;99.90
5924;DHT22;2987;50.884;14.818;2022-07-03T03:05:12;11.20;99.90
5924;DHT22;2987;50.884;14.818;2022-07-03T03:10:18;11.50;99.90
5924;DHT22;2987;50.884;14.818;2022-07-03T03:12:46;11.30;99.90
5924;DHT22;2987;50.884;14.818;2022-07-03T03:15:13;11.30;99.90
5924;DHT22;2987;50.884;14.818;2022-07-03T03:17:43;11.30;99.90
5924;DHT22;2987;50.884;14.818;2022-07-03T03:20:15;11.30;99.90
5924;DHT22;2987;50.884;14.818;2022-07-03T03:25:51;11.40;99.90
5924;DHT22;2987;50.884;14.818;2022-07-03T03:28:19;11.50;99.90
5924;DHT22;2987;50.884;14.818;2022-07-03T03:33:11;11.50;99.90
5924;DHT22;2987;50.884;14.818;2022-07-03T03:35:39;11.40;99.90
5924;DHT22;2987;50.884;14.818;2022-07-03T03:38:06;11.50;99.90
5924;DHT22;2987;50.884;14.818;2022-07-03T03:40:33;11.70;99.90
5924;DHT22;2987;50.884;14.818;2022-07-03T03:43:01;11.40;99.90
5924;DHT22;2987;50.884;14.818;2022-07-03T03:45:32;11.50;99.90
5924;DHT22;2987;50.884;14.818;2022-07-03T03:48:00;11.40;99.90
5924;DHT22;2987;50.884;14.818;2022-07-03T03:50:26;11.20;99.90
5924;DHT22;2987;50.884;14.818;2022-07-03T03:52:53;11.40;99.90
5924;DHT22;2987;50.884;14.818;2022-07-03T03:55:20;11.50;99.90
5924;DHT22;2987;50.884;14.818;2022-07-03T03:57:46;11.50;99.90
5924;DHT22;2987;50.884;14.818;2022-07-03T04:00:13;11.50;99.90
5924;DHT22;2987;50.884;14.818;2022-07-03T04:02:39;11.60;99.90
5924;DHT22;2987;50.884;14.818;2022-07-03T04:05:06;11.60;99.90
5924;DHT22;2987;50.884;14.818;2022-07-03T04:07:33;11.70;99.90
5924;DHT22;2987;50.884;14.818;2022-07-03T04:09:59;11.70;99.90
5924;DHT22;2987;50.884;14.818;2022-07-03T04:12:25;11.70;99.90
5924;DHT22;2987;50.884;14.818;2022-07-03T04:14:51;11.90;99.90
5924;DHT22;2987;50.884;14.818;2022-07-03T04:17:18;12.00;99.90
5924;DHT22;2987;50.884;14.818;2022-07-03T04:19:44;12.10;99.90
5924;DHT22;2987;50.884;14.818;2022-07-03T04:22:10;12.20;99.90
5924;DHT22;2987;50.884;14.818;2022-07-03T04:24:36;12.30;99.90
5924;DHT22;2987;50.884;14.818;2022-07-03T04:27:03;12.40;99.90
5924;DHT22;2987;50.884;14.818;2022-07-03T04:29:30;12.80;99.90
5924;DHT22;2987;50.884;14.818;2022-07-03T04:31:56;13.40;99.90
5924;DHT22;2987;50.884;14.818;2022-07-03T04:34:22;14.10;99.90
5924;DHT22;2987;50.884;14.818;2022-07-03T04:36:49;14.90;99.90
5924;DHT22;2987;50.884;14.818;2022-07-03T04:39:15;15.30;99.90
5924;DHT22;2987;50.884;14.818;2022-07-03T04:41:41;15.40;99.90
5924;DHT22;2987;50.884;14.818;2022-07-03T04:44:07;15.30;99.90
5924;DHT22;2987;50.884;14.818;2022-07-03T04:46:34;15.20;99.90
5924;DHT22;2987;50.884;14.818;2022-07-03T04:49:00;15.00;99.90
5924;DHT22;2987;50.884;14.818;2022-07-03T04:51:26;14.90;99.90
5924;DHT22;2987;50.884;14.818;2022-07-03T04:53:52;14.80;99.90
5924;DHT22;2987;50.884;14.818;2022-07-03T04:56:20;14.70;99.90
5924;DHT22;2987;50.884;14.818;2022-07-03T04:58:46;14.70;99.90
5924;DHT22;2987;50.884;14.818;2022-07-03T05:01:12;14.80;99.90
5924;DHT22;2987;50.884;14.818;2022-07-03T05:03:38;14.90;99.90
5924;DHT22;2987;50.884;14.818;2022-07-03T05:06:05;14.90;99.90
5924;DHT22;2987;50.884;14.818;2022-07-03T05:08:31;15.00;99.90
5924;DHT22;2987;50.884;14.818;2022-07-03T05:10:57;15.10;99.90
5924;DHT22;2987;50.884;14.818;2022-07-03T05:13:25;15.50;99.90
5924;DHT22;2987;50.884;14.818;2022-07-03T05:15:52;15.70;99.90
5924;DHT22;2987;50.884;14.818;2022-07-03T05:18:18;15.80;99.90
5924;DHT22;2987;50.884;14.818;2022-07-03T05:20:52;15.80;99.90
5924;DHT22;2987;50.884;14.818;2022-07-03T05:23:18;15.80;99.90
5924;DHT22;2987;50.884;14.818;2022-07-03T05:25:44;15.90;99.90
5924;DHT22;2987;50.884;14.818;2022-07-03T05:28:12;15.90;99.90
5924;DHT22;2987;50.884;14.818;2022-07-03T05:30:38;16.00;99.90
5924;DHT22;2987;50.884;14.818;2022-07-03T05:33:04;16.00;99.90
5924;DHT22;2987;50.884;14.818;2022-07-03T05:35:30;16.10;99.90
5924;DHT22;2987;50.884;14.818;2022-07-03T05:37:57;16.20;99.90
5924;DHT22;2987;50.884;14.818;2022-07-03T05:40:23;16.20;99.90
5924;DHT22;2987;50.884;14.818;2022-07-03T05:42:49;16.30;99.90
5924;DHT22;2987;50.884;14.818;2022-07-03T05:45:16;16.50;99.90
5924;DHT22;2987;50.884;14.818;2022-07-03T05:47:42;16.70;99.90
5924;DHT22;2987;50.884;14.818;2022-07-03T05:50:09;17.00;99.90
5924;DHT22;2987;50.884;14.818;2022-07-03T05:52:36;17.20;99.90
5924;DHT22;2987;50.884;14.818;2022-07-03T05:55:03;17.20;99.90
5924;DHT22;2987;50.884;14.818;2022-07-03T05:57:30;17.30;99.90
5924;DHT22;2987;50.884;14.818;2022-07-03T05:59:56;17.40;99.90
5924;DHT22;2987;50.884;14.818;2022-07-03T06:02:22;17.40;99.90
5924;DHT22;2987;50.884;14.818;2022-07-03T06:04:55;17.50;99.90
5924;DHT22;2987;50.884;14.818;2022-07-03T06:07:22;17.60;99.90
5924;DHT22;2987;50.884;14.818;2022-07-03T06:09:48;17.70;99.90
5924;DHT22;2987;50.884;14.818;2022-07-03T06:12:15;17.90;99.90
5924;DHT22;2987;50.884;14.818;2022-07-03T06:14:41;18.10;99.90
5924;DHT22;2987;50.884;14.818;2022-07-03T06:17:07;18.30;99.90
5924;DHT22;2987;50.884;14.818;2022-07-03T06:19:33;18.50;99.90
5924;DHT22;2987;50.884;14.818;2022-07-03T06:22:00;18.80;99.90
5924;DHT22;2987;50.884;14.818;2022-07-03T06:24:27;19.30;99.90
5924;DHT22;2987;50.884;14.818;2022-07-03T06:26:54;19.80;99.90
5924;DHT22;2987;50.884;14.818;2022-07-03T06:29:20;20.30;99.90
5924;DHT22;2987;50.884;14.818;2022-07-03T06:31:49;20.60;99.90
5924;DHT22;2987;50.884;14.818;2022-07-03T06:34:16;20.90;99.90
5924;DHT22;2987;50.884;14.818;2022-07-03T06:36:42;21.20;99.90
5924;DHT22;2987;50.884;14.818;2022-07-03T06:39:08;21.50;99.90
5924;DHT22;2987;50.884;14.818;2022-07-03T06:41:34;21.70;99.90
5924;DHT22;2987;50.884;14.818;2022-07-03T06:44:00;21.80;99.90
5924;DHT22;2987;50.884;14.818;2022-07-03T06:46:32;22.20;99.90
5924;DHT22;2987;50.884;14.818;2022-07-03T06:48:59;22.50;99.90
5924;DHT22;2987;50.884;14.818;2022-07-03T06:51:25;22.70;99.90
5924;DHT22;2987;50.884;14.818;2022-07-03T06:53:51;22.80;99.90
5924;DHT22;2987;50.884;14.818;2022-07-03T06:56:17;22.90;99.90
5924;DHT22;2987;50.884;14.818;2022-07-03T06:58:44;23.10;99.90
5924;DHT22;2987;50.884;14.818;2022-07-03T07:01:10;23.30;99.90
5924;DHT22;2987;50.884;14.818;2022-07-03T07:03:36;23.40;99.90
5924;DHT22;2987;50.884;14.818;2022-07-03T07:06:02;23.50;99.90
5924;DHT22;2987;50.884;14.818;2022-07-03T07:08:29;23.60;99.90
5924;DHT22;2987;50.884;14.818;2022-07-03T07:10:56;23.90;99.90
5924;DHT22;2987;50.884;14.818;2022-07-03T07:13:28;23.90;99.90
5924;DHT22;2987;50.884;14.818;2022-07-03T07:15:54;24.10;99.90
5924;DHT22;2987;50.884;14.818;2022-07-03T07:18:20;24.40;99.90
5924;DHT22;2987;50.884;14.818;2022-07-03T07:20:47;24.60;99.90
5924;DHT22;2987;50.884;14.818;2022-07-03T07:23:13;24.80;99.90
5924;DHT22;2987;50.884;14.818;2022-07-03T07:25:39;24.80;99.90
5924;DHT22;2987;50.884;14.818;2022-07-03T07:28:10;24.90;99.90
5924;DHT22;2987;50.884;14.818;2022-07-03T07:30:37;24.90;99.90
5924;DHT22;2987;50.884;14.818;2022-07-03T07:33:06;24.90;99.90
5924;DHT22;2987;50.884;14.818;2022-07-03T07:35:33;25.00;99.90
5924;DHT22;2987;50.884;14.818;2022-07-03T07:37:59;24.90;99.90
5924;DHT22;2987;50.884;14.818;2022-07-03T07:40:25;24.80;99.90
5924;DHT22;2987;50.884;14.818;2022-07-03T07:42:51;24.80;99.90
5924;DHT22;2987;50.884;14.818;2022-07-03T07:45:17;25.00;99.90
5924;DHT22;2987;50.884;14.818;2022-07-03T07:47:51;25.20;99.90
5924;DHT22;2987;50.884;14.818;2022-07-03T07:50:17;25.40;99.90
5924;DHT22;2987;50.884;14.818;2022-07-03T07:52:44;25.70;99.90
5924;DHT22;2987;50.884;14.818;2022-07-03T07:55:15;25.90;99.90
5924;DHT22;2987;50.884;14.818;2022-07-03T07:57:42;25.80;99.90
5924;DHT22;2987;50.884;14.818;2022-07-03T08:00:12;25.90;99.90
5924;DHT22;2987;50.884;14.818;2022-07-03T08:02:40;25.90;99.90
5924;DHT22;2987;50.884;14.818;2022-07-03T08:05:27;25.80;99.90
5924;DHT22;2987;50.884;14.818;2022-07-03T08:08:11;26.00;99.90
5924;DHT22;2987;50.884;14.818;2022-07-03T08:10:47;26.20;99.90
5924;DHT22;2987;50.884;14.818;2022-07-03T08:13:16;26.40;99.90
5924;DHT22;2987;50.884;14.818;2022-07-03T08:15:45;26.60;99.90
5924;DHT22;2987;50.884;14.818;2022-07-03T08:18:13;26.80;99.90
5924;DHT22;2987;50.884;14.818;2022-07-03T08:20:40;27.00;99.90
5924;DHT22;2987;50.884;14.818;2022-07-03T08:23:06;27.00;99.90
5924;DHT22;2987;50.884;14.818;2022-07-03T08:25:32;26.70;99.90
5924;DHT22;2987;50.884;14.818;2022-07-03T08:27:58;26.60;99.90
5924;DHT22;2987;50.884;14.818;2022-07-03T08:30:25;26.60;99.90
5924;DHT22;2987;50.884;14.818;2022-07-03T08:32:56;26.80;99.90
5924;DHT22;2987;50.884;14.818;2022-07-03T08:35:24;26.80;99.90
5924;DHT22;2987;50.884;14.818;2022-07-03T08:37:50;26.40;99.90
5924;DHT22;2987;50.884;14.818;2022-07-03T08:40:19;26.20;99.90
5924;DHT22;2987;50.884;14.818;2022-07-03T08:42:47;26.30;99.90
5924;DHT22;2987;50.884;14.818;2022-07-03T08:45:16;26.40;99.90
5924;DHT22;2987;50.884;14.818;2022-07-03T08:47:43;26.30;99.90
5924;DHT22;2987;50.884;14.818;2022-07-03T08:50:15;26.50;99.90
5924;DHT22;2987;50.884;14.818;2022-07-03T08:52:42;26.50;99.90
5924;DHT22;2987;50.884;14.818;2022-07-03T08:55:10;26.60;99.90
5924;DHT22;2987;50.884;14.818;2022-07-03T08:57:37;26.80;99.90
5924;DHT22;2987;50.884;14.818;2022-07-03T09:00:06;26.70;99.90
5924;DHT22;2987;50.884;14.818;2022-07-03T09:02:34;26.60;99.90
5924;DHT22;2987;50.884;14.818;2022-07-03T09:05:01;26.70;99.90
5924;DHT22;2987;50.884;14.818;2022-07-03T09:07:34;26.70;99.90
5924;DHT22;2987;50.884;14.818;2022-07-03T09:10:02;26.90;99.90
5924;DHT22;2987;50.884;14.818;2022-07-03T09:12:30;27.10;99.90
5924;DHT22;2987;50.884;14.818;2022-07-03T09:14:59;27.10;99.90
5924;DHT22;2987;50.884;14.818;2022-07-03T09:17:27;27.10;99.90
5924;DHT22;2987;50.884;14.818;2022-07-03T09:19:54;27.10;99.90
5924;DHT22;2987;50.884;14.818;2022-07-03T09:22:23;27.20;99.90
5924;DHT22;2987;50.884;14.818;2022-07-03T09:24:52;27.30;99.90
5924;DHT22;2987;50.884;14.818;2022-07-03T09:27:21;27.50;99.90
5924;DHT22;2987;50.884;14.818;2022-07-03T09:29:51;27.50;99.90
5924;DHT22;2987;50.884;14.818;2022-07-03T09:32:22;27.60;99.30
5924;DHT22;2987;50.884;14.818;2022-07-03T09:34:49;27.60;99.90
5924;DHT22;2987;50.884;14.818;2022-07-03T09:37:29;27.40;99.90
5924;DHT22;2987;50.884;14.818;2022-07-03T09:39:57;27.40;99.90
5924;DHT22;2987;50.884;14.818;2022-07-03T09:42:25;27.50;99.90
5924;DHT22;2987;50.884;14.818;2022-07-03T09:44:54;27.40;99.60
5924;DHT22;2987;50.884;14.818;2022-07-03T09:47:23;27.60;99.90
5924;DHT22;2987;50.884;14.818;2022-07-03T09:49:54;27.70;99.90
5924;DHT22;2987;50.884;14.818;2022-07-03T09:52:31;27.40;99.80
5924;DHT22;2987;50.884;14.818;2022-07-03T09:55:12;26.80;99.90
5924;DHT22;2987;50.884;14.818;2022-07-03T09:57:41;26.50;99.90
5924;DHT22;2987;50.884;14.818;2022-07-03T10:03:01;26.30;99.20
5924;DHT22;2987;50.884;14.818;2022-07-03T10:07:59;26.30;99.90
5924;DHT22;2987;50.884;14.818;2022-07-03T10:10:28;26.50;99.90
5924;DHT22;2987;50.884;14.818;2022-07-03T10:12:55;26.70;99.90
5924;DHT22;2987;50.884;14.818;2022-07-03T10:15:22;26.70;99.90
5924;DHT22;2987;50.884;14.818;2022-07-03T10:17:52;26.80;99.00
5924;DHT22;2987;50.884;14.818;2022-07-03T10:20:34;26.90;99.90
5924;DHT22;2987;50.884;14.818;2022-07-03T10:23:02;26.90;99.90
5924;DHT22;2987;50.884;14.818;2022-07-03T10:25:30;26.90;99.60
5924;DHT22;2987;50.884;14.818;2022-07-03T10:27:57;27.00;98.90
5924;DHT22;2987;50.884;14.818;2022-07-03T10:30:24;27.20;98.80
5924;DHT22;2987;50.884;14.818;2022-07-03T10:32:54;27.50;99.90
5924;DHT22;2987;50.884;14.818;2022-07-03T10:35:40;27.60;99.90
5924;DHT22;2987;50.884;14.818;2022-07-03T10:44:04;28.00;99.40
5924;DHT22;2987;50.884;14.818;2022-07-03T10:46:50;27.60;99.90
5924;DHT22;2987;50.884;14.818;2022-07-03T10:49:16;27.50;99.90
5924;DHT22;2987;50.884;14.818;2022-07-03T10:51:52;27.40;99.90
5924;DHT22;2987;50.884;14.818;2022-07-03T10:54:22;27.40;99.00
5924;DHT22;2987;50.884;14.818;2022-07-03T10:57:07;27.60;99.90
5924;DHT22;2987;50.884;14.818;2022-07-03T10:59:58;27.90;99.90
5924;DHT22;2987;50.884;14.818;2022-07-03T11:02:44;28.20;98.90
5924;DHT22;2987;50.884;14.818;2022-07-03T11:05:14;28.40;99.90
5924;DHT22;2987;50.884;14.818;2022-07-03T11:08:04;28.30;98.80
5924;DHT22;2987;50.884;14.818;2022-07-03T11:10:32;28.50;97.10
5924;DHT22;2987;50.884;14.818;2022-07-03T11:13:02;28.70;96.50
5924;DHT22;2987;50.884;14.818;2022-07-03T11:15:32;28.20;97.70
5924;DHT22;2987;50.884;14.818;2022-07-03T11:18:08;27.70;97.70
5924;DHT22;2987;50.884;14.818;2022-07-03T11:23:39;27.40;97.90
5924;DHT22;2987;50.884;14.818;2022-07-03T11:26:23;27.80;97.30
5924;DHT22;2987;50.884;14.818;2022-07-03T11:28:51;28.00;98.50
5924;DHT22;2987;50.884;14.818;2022-07-03T11:31:22;28.20;99.20
5924;DHT22;2987;50.884;14.818;2022-07-03T11:33:58;28.20;96.90
5924;DHT22;2987;50.884;14.818;2022-07-03T11:36:28;28.30;95.50
5924;DHT22;2987;50.884;14.818;2022-07-03T11:39:09;28.30;99.30
5924;DHT22;2987;50.884;14.818;2022-07-03T11:41:43;28.50;99.10
5924;DHT22;2987;50.884;14.818;2022-07-03T11:44:15;28.80;97.40
5924;DHT22;2987;50.884;14.818;2022-07-03T11:46:47;29.00;96.80
5924;DHT22;2987;50.884;14.818;2022-07-03T11:49:15;29.20;97.10
5924;DHT22;2987;50.884;14.818;2022-07-03T11:51:53;29.30;94.40
5924;DHT22;2987;50.884;14.818;2022-07-03T11:54:20;29.40;94.40
5924;DHT22;2987;50.884;14.818;2022-07-03T11:56:46;29.30;96.30
5924;DHT22;2987;50.884;14.818;2022-07-03T11:59:13;29.40;94.60
5924;DHT22;2987;50.884;14.818;2022-07-03T12:01:40;29.50;94.20
5924;DHT22;2987;50.884;14.818;2022-07-03T12:04:18;29.40;95.80
5924;DHT22;2987;50.884;14.818;2022-07-03T12:07:01;29.50;97.20
5924;DHT22;2987;50.884;14.818;2022-07-03T12:09:31;29.50;96.50
5924;DHT22;2987;50.884;14.818;2022-07-03T12:12:02;29.00;94.00
5924;DHT22;2987;50.884;14.818;2022-07-03T12:14:50;28.50;95.50
5924;DHT22;2987;50.884;14.818;2022-07-03T12:20:08;27.80;99.50
5924;DHT22;2987;50.884;14.818;2022-07-03T12:22:36;27.80;98.40
5924;DHT22;2987;50.884;14.818;2022-07-03T12:27:41;28.00;99.90
5924;DHT22;2987;50.884;14.818;2022-07-03T12:30:13;28.00;96.10
5924;DHT22;2987;50.884;14.818;2022-07-03T12:32:45;27.90;98.60
5924;DHT22;2987;50.884;14.818;2022-07-03T12:35:12;27.80;98.40
5924;DHT22;2987;50.884;14.818;2022-07-03T12:37:40;28.00;99.10
5924;DHT22;2987;50.884;14.818;2022-07-03T12:40:09;28.40;99.50
5924;DHT22;2987;50.884;14.818;2022-07-03T12:42:56;28.50;99.50
5924;DHT22;2987;50.884;14.818;2022-07-03T12:48:07;28.80;97.30
5924;DHT22;2987;50.884;14.818;2022-07-03T12:50:51;28.90;97.30
5924;DHT22;2987;50.884;14.818;2022-07-03T12:53:29;29.20;96.60
5924;DHT22;2987;50.884;14.818;2022-07-03T12:56:01;29.10;93.30
5924;DHT22;2987;50.884;14.818;2022-07-03T12:58:53;28.80;96.20
5924;DHT22;2987;50.884;14.818;2022-07-03T13:01:39;28.80;97.80
5924;DHT22;2987;50.884;14.818;2022-07-03T13:04:06;28.90;95.10
5924;DHT22;2987;50.884;14.818;2022-07-03T13:06:36;28.80;95.60
5924;DHT22;2987;50.884;14.818;2022-07-03T13:09:28;28.70;94.90
5924;DHT22;2987;50.884;14.818;2022-07-03T13:11:54;29.00;94.60
5924;DHT22;2987;50.884;14.818;2022-07-03T13:14:27;29.30;94.60
5924;DHT22;2987;50.884;14.818;2022-07-03T13:16:57;29.40;94.40
5924;DHT22;2987;50.884;14.818;2022-07-03T13:19:26;29.50;93.60
5924;DHT22;2987;50.884;14.818;2022-07-03T13:21:54;29.70;93.20
5924;DHT22;2987;50.884;14.818;2022-07-03T13:24:22;29.50;95.50
5924;DHT22;2987;50.884;14.818;2022-07-03T13:26:50;29.20;93.80
5924;DHT22;2987;50.884;14.818;2022-07-03T13:29:18;29.10;94.40
5924;DHT22;2987;50.884;14.818;2022-07-03T13:31:44;28.70;97.50
5924;DHT22;2987;50.884;14.818;2022-07-03T13:34:11;28.40;96.60
5924;DHT22;2987;50.884;14.818;2022-07-03T13:36:37;28.40;97.90
5924;DHT22;2987;50.884;14.818;2022-07-03T13:39:03;28.60;99.00
5924;DHT22;2987;50.884;14.818;2022-07-03T13:41:30;28.90;97.50
5924;DHT22;2987;50.884;14.818;2022-07-03T13:43:56;28.90;97.70
5924;DHT22;2987;50.884;14.818;2022-07-03T13:46:22;29.00;96.30
5924;DHT22;2987;50.884;14.818;2022-07-03T13:48:50;29.10;95.90
5924;DHT22;2987;50.884;14.818;2022-07-03T13:51:17;29.30;93.20
5924;DHT22;2987;50.884;14.818;2022-07-03T13:53:44;29.20;94.70
5924;DHT22;2987;50.884;14.818;2022-07-03T13:56:10;29.10;95.70
5924;DHT22;2987;50.884;14.818;2022-07-03T13:58:37;28.90;96.00
5924;DHT22;2987;50.884;14.818;2022-07-03T14:01:03;29.00;96.00
5924;DHT22;2987;50.884;14.818;2022-07-03T14:03:29;29.00;96.30
5924;DHT22;2987;50.884;14.818;2022-07-03T14:05:56;28.90;96.10
5924;DHT22;2987;50.884;14.818;2022-07-03T14:08:23;29.00;95.10
5924;DHT22;2987;50.884;14.818;2022-07-03T14:10:49;28.90;98.10
5924;DHT22;2987;50.884;14.818;2022-07-03T14:13:16;29.00;94.60
5924;DHT22;2987;50.884;14.818;2022-07-03T14:15:43;29.20;99.00
5924;DHT22;2987;50.884;14.818;2022-07-03T14:18:09;29.20;94.80
5924;DHT22;2987;50.884;14.818;2022-07-03T14:20:35;29.20;95.40
5924;DHT22;2987;50.884;14.818;2022-07-03T14:23:02;29.20;97.20
5924;DHT22;2987;50.884;14.818;2022-07-03T14:25:28;29.20;95.50
5924;DHT22;2987;50.884;14.818;2022-07-03T14:27:54;29.10;96.10
5924;DHT22;2987;50.884;14.818;2022-07-03T14:30:42;29.10;95.80
5924;DHT22;2987;50.884;14.818;2022-07-03T14:33:32;29.20;94.80
5924;DHT22;2987;50.884;14.818;2022-07-03T14:35:58;29.20;95.00
5924;DHT22;2987;50.884;14.818;2022-07-03T14:38:24;29.20;94.80
5924;DHT22;2987;50.884;14.818;2022-07-03T14:40:51;29.30;95.90
5924;DHT22;2987;50.884;14.818;2022-07-03T14:43:24;29.30;94.40
5924;DHT22;2987;50.884;14.818;2022-07-03T14:45:51;29.30;96.20
5924;DHT22;2987;50.884;14.818;2022-07-03T14:48:17;29.50;94.00
5924;DHT22;2987;50.884;14.818;2022-07-03T14:50:43;29.20;96.10
5924;DHT22;2987;50.884;14.818;2022-07-03T14:53:11;29.10;96.20
5924;DHT22;2987;50.884;14.818;2022-07-03T14:55:39;29.00;98.10
5924;DHT22;2987;50.884;14.818;2022-07-03T14:58:26;29.00;97.80
5924;DHT22;2987;50.884;14.818;2022-07-03T15:00:55;29.20;95.90
5924;DHT22;2987;50.884;14.818;2022-07-03T15:03:32;29.10;95.40
5924;DHT22;2987;50.884;14.818;2022-07-03T15:06:02;29.10;96.60
5924;DHT22;2987;50.884;14.818;2022-07-03T15:08:47;29.30;95.90
5924;DHT22;2987;50.884;14.818;2022-07-03T15:11:20;29.30;93.30
5924;DHT22;2987;50.884;14.818;2022-07-03T15:14:07;29.30;95.50
5924;DHT22;2987;50.884;14.818;2022-07-03T15:16:34;29.30;94.30
5924;DHT22;2987;50.884;14.818;2022-07-03T15:19:01;29.30;93.00
5924;DHT22;2987;50.884;14.818;2022-07-03T15:21:30;29.30;95.80
5924;DHT22;2987;50.884;14.818;2022-07-03T15:24:02;29.00;97.40
5924;DHT22;2987;50.884;14.818;2022-07-03T15:26:30;28.60;96.60
5924;DHT22;2987;50.884;14.818;2022-07-03T15:28:59;28.50;98.00
5924;DHT22;2987;50.884;14.818;2022-07-03T15:31:27;28.60;98.80
5924;DHT22;2987;50.884;14.818;2022-07-03T15:33:55;28.60;97.10
5924;DHT22;2987;50.884;14.818;2022-07-03T15:36:26;28.70;98.00
5924;DHT22;2987;50.884;14.818;2022-07-03T15:39:03;28.70;97.30
5924;DHT22;2987;50.884;14.818;2022-07-03T15:41:54;28.50;97.30
5924;DHT22;2987;50.884;14.818;2022-07-03T15:44:33;28.20;96.50
5924;DHT22;2987;50.884;14.818;2022-07-03T15:49:47;28.20;97.20
5924;DHT22;2987;50.884;14.818;2022-07-03T15:52:19;28.20;98.00
5924;DHT22;2987;50.884;14.818;2022-07-03T15:54:57;28.10;97.60
5924;DHT22;2987;50.884;14.818;2022-07-03T15:57:25;28.10;98.30
5924;DHT22;2987;50.884;14.818;2022-07-03T15:59:59;28.30;97.10
5924;DHT22;2987;50.884;14.818;2022-07-03T16:02:32;28.30;98.20
5924;DHT22;2987;50.884;14.818;2022-07-03T16:05:07;28.40;97.50
5924;DHT22;2987;50.884;14.818;2022-07-03T16:07:38;28.30;95.60
5924;DHT22;2987;50.884;14.818;2022-07-03T16:10:08;28.30;97.10
5924;DHT22;2987;50.884;14.818;2022-07-03T16:12:35;28.30;96.30
5924;DHT22;2987;50.884;14.818;2022-07-03T16:15:05;28.30;97.00
5924;DHT22;2987;50.884;14.818;2022-07-03T16:17:32;28.30;95.90
5924;DHT22;2987;50.884;14.818;2022-07-03T16:20:02;28.20;95.50
5924;DHT22;2987;50.884;14.818;2022-07-03T16:22:29;28.10;96.90
5924;DHT22;2987;50.884;14.818;2022-07-03T16:25:01;28.10;98.50
5924;DHT22;2987;50.884;14.818;2022-07-03T16:27:28;28.10;98.40
5924;DHT22;2987;50.884;14.818;2022-07-03T16:29:55;28.10;98.50
5924;DHT22;2987;50.884;14.818;2022-07-03T16:32:28;28.10;98.20
5924;DHT22;2987;50.884;14.818;2022-07-03T16:35:23;28.10;97.90
5924;DHT22;2987;50.884;14.818;2022-07-03T16:37:57;27.90;98.70
5924;DHT22;2987;50.884;14.818;2022-07-03T16:40:34;27.80;97.20
5924;DHT22;2987;50.884;14.818;2022-07-03T16:45:37;27.70;99.50
5924;DHT22;2987;50.884;14.818;2022-07-03T16:48:12;27.60;99.60
5924;DHT22;2987;50.884;14.818;2022-07-03T16:50:48;27.60;98.70
5924;DHT22;2987;50.884;14.818;2022-07-03T16:53:18;27.50;99.00
5924;DHT22;2987;50.884;14.818;2022-07-03T16:55:46;27.40;99.60
5924;DHT22;2987;50.884;14.818;2022-07-03T16:58:13;27.30;99.90
5924;DHT22;2987;50.884;14.818;2022-07-03T17:00:41;27.10;99.90
5924;DHT22;2987;50.884;14.818;2022-07-03T17:03:10;27.00;99.70
5924;DHT22;2987;50.884;14.818;2022-07-03T17:05:36;26.80;99.90
5924;DHT22;2987;50.884;14.818;2022-07-03T17:08:03;26.70;99.90